Time;durP1;ratioP1;P1;durP2;ratioP2;P2;SDS_P1;SDS_P2;PMS_P1;PMS_P2;Temp;Humidity;BMP_temperature;BMP_pressure;BME280_temperature;BME280_humidity;BME280_pressure;Samples;Min_cycle;Max_cycle;Signal;HPM_P1;HPM_P2
2023/09/19 00:00:36;;;;;;;14.63;2.20;;;14.40;99.90;;;;;;5042990;28;20041;-56
2023/09/19 00:03:04;;;;;;;14.15;3.38;;;14.30;99.90;;;;;;5062226;28;20132;-57
2023/09/19 00:05:34;;;;;;;12.48;2.08;;;14.30;99.90;;;;;;5052822;28;20094;-51
2023/09/19 00:08:04;;;;;;;16.70;2.03;;;14.40;99.90;;;;;;5052443;28;20048;-58
2023/09/19 00:10:34;;;;;;;7.38;1.88;;;14.30;99.90;;;;;;5067281;28;20051;-55
2023/09/19 00:13:06;;;;;;;12.27;2.58;;;14.30;99.90;;;;;;5063486;28;20515;-56
2023/09/19 00:15:42;;;;;;;16.00;2.85;;;14.30;99.90;;;;;;5050943;28;20041;-58
2023/09/19 00:18:09;;;;;;;11.88;2.72;;;14.30;99.90;;;;;;5055801;28;20064;-58
2023/09/19 00:20:36;;;;;;;13.07;2.88;;;14.30;99.90;;;;;;5070861;28;20086;-55
2023/09/19 00:23:08;;;;;;;10.10;2.55;;;14.30;99.90;;;;;;5040691;28;20055;-55
2023/09/19 00:25:38;;;;;;;20.25;2.67;;;14.30;99.90;;;;;;5070340;28;20053;-57
2023/09/19 00:28:07;;;;;;;13.98;3.40;;;14.30;99.90;;;;;;5065626;28;20415;-56
2023/09/19 00:30:34;;;;;;;9.02;2.20;;;14.30;99.90;;;;;;5052158;28;20131;-54
2023/09/19 00:33:05;;;;;;;14.98;2.83;;;14.30;99.90;;;;;;5058970;28;20496;-54
2023/09/19 00:35:33;;;;;;;13.95;2.75;;;14.30;99.90;;;;;;5066950;28;20048;-57
2023/09/19 00:37:59;;;;;;;18.75;4.00;;;14.30;99.90;;;;;;5060236;28;20072;-57
2023/09/19 00:40:26;;;;;;;12.98;2.47;;;14.30;99.90;;;;;;5064759;28;20052;-54
2023/09/19 00:42:53;;;;;;;14.10;2.45;;;14.30;99.90;;;;;;5065380;28;20041;-51
2023/09/19 00:45:20;;;;;;;17.50;2.78;;;14.30;99.90;;;;;;5028045;28;20094;-55
2023/09/19 00:47:48;;;;;;;16.23;2.50;;;14.30;99.90;;;;;;5067473;28;20049;-54
2023/09/19 00:50:21;;;;;;;7.90;2.15;;;14.30;99.90;;;;;;5053321;28;20051;-56
2023/09/19 00:52:50;;;;;;;16.75;2.63;;;14.30;99.90;;;;;;5036380;28;20073;-56
2023/09/19 00:55:19;;;;;;;19.13;2.67;;;14.30;99.90;;;;;;5058122;28;20844;-57
2023/09/19 00:57:47;;;;;;;11.02;2.58;;;14.30;99.90;;;;;;5068420;28;20064;-52
2023/09/19 01:00:15;;;;;;;10.07;2.22;;;14.20;99.90;;;;;;5041278;28;20052;-56
2023/09/19 01:02:43;;;;;;;15.98;2.90;;;14.30;99.90;;;;;;5069184;28;20106;-54
2023/09/19 01:05:10;;;;;;;12.35;2.42;;;14.30;99.90;;;;;;5057207;28;20049;-52
2023/09/19 01:07:44;;;;;;;21.13;3.17;;;14.30;99.90;;;;;;5049779;28;20048;-54
2023/09/19 01:10:13;;;;;;;12.05;2.50;;;14.30;99.90;;;;;;4686381;28;10000576;-56
2023/09/19 01:12:57;;;;;;;18.08;2.58;;;14.30;99.90;;;;;;5014713;28;20719;-56
2023/09/19 01:15:40;;;;;;;11.82;3.05;;;14.20;99.90;;;;;;5057053;28;20445;-56
2023/09/19 01:18:06;;;;;;;14.65;2.92;;;14.20;99.90;;;;;;5067018;28;20045;-57
2023/09/19 01:20:48;;;;;;;15.93;2.30;;;14.20;99.90;;;;;;5056406;28;20036;-56
2023/09/19 01:23:43;;;;;;;18.80;3.00;;;14.20;99.90;;;;;;5051473;28;20052;-55
2023/09/19 01:26:30;;;;;;;12.50;2.60;;;14.20;99.90;;;;;;5060287;28;20094;-55
2023/09/19 01:29:29;;;;;;;16.52;3.90;;;14.20;99.90;;;;;;5031755;28;20045;-55
2023/09/19 01:32:01;;;;;;;16.40;2.00;;;14.20;99.90;;;;;;5025723;28;20049;-55
2023/09/19 01:34:44;;;;;;;14.70;3.55;;;14.20;99.90;;;;;;5035815;28;20048;-59
2023/09/19 01:37:10;;;;;;;15.13;2.67;;;14.20;99.90;;;;;;5047264;28;20044;-55
2023/09/19 01:39:38;;;;;;;13.98;3.30;;;14.20;99.90;;;;;;5064301;28;20049;-56
2023/09/19 01:42:19;;;;;;;24.02;3.75;;;14.20;99.90;;;;;;5058343;28;20045;-56
2023/09/19 01:44:59;;;;;;;17.40;2.83;;;14.20;99.90;;;;;;5034140;28;20045;-55
2023/09/19 01:47:51;;;;;;;12.95;3.15;;;14.20;99.90;;;;;;5039093;28;20084;-56
2023/09/19 01:50:31;;;;;;;12.55;2.53;;;14.30;99.90;;;;;;5038400;28;20047;-56
2023/09/19 01:53:04;;;;;;;14.98;2.42;;;14.30;99.90;;;;;;5037181;28;20090;-56
2023/09/19 01:55:33;;;;;;;12.95;2.60;;;14.30;99.90;;;;;;5037094;28;20053;-56
2023/09/19 01:58:07;;;;;;;14.32;2.53;;;14.20;99.90;;;;;;5036332;28;20080;-56
2023/09/19 02:00:36;;;;;;;9.68;2.05;;;14.20;99.90;;;;;;5035035;28;20041;-55
2023/09/19 02:03:03;;;;;;;16.35;2.88;;;14.20;99.90;;;;;;5044242;28;20049;-55
2023/09/19 02:05:30;;;;;;;18.30;3.80;;;14.20;99.90;;;;;;5047276;28;20140;-53
2023/09/19 02:07:56;;;;;;;14.93;2.53;;;14.20;99.90;;;;;;5041975;28;20114;-54
2023/09/19 02:10:23;;;;;;;20.13;2.67;;;14.30;99.90;;;;;;5046317;28;20087;-52
2023/09/19 02:12:50;;;;;;;15.50;2.97;;;14.20;99.90;;;;;;5059301;28;20134;-55
2023/09/19 02:15:17;;;;;;;28.23;3.78;;;14.30;99.90;;;;;;5031836;28;20052;-56
2023/09/19 02:17:45;;;;;;;20.27;3.97;;;14.20;99.90;;;;;;5056105;28;20052;-54
2023/09/19 02:20:13;;;;;;;16.45;3.28;;;14.20;99.90;;;;;;5067295;28;20135;-56
2023/09/19 02:22:44;;;;;;;13.77;2.97;;;14.20;99.90;;;;;;5038865;28;20040;-57
2023/09/19 02:25:11;;;;;;;12.98;2.67;;;14.20;99.90;;;;;;5068427;28;20068;-55
2023/09/19 02:27:39;;;;;;;16.83;2.53;;;14.30;99.90;;;;;;5054780;28;20515;-51
2023/09/19 02:30:06;;;;;;;12.07;3.10;;;14.30;99.90;;;;;;5068380;28;20040;-56
2023/09/19 02:32:36;;;;;;;7.95;2.13;;;14.20;99.90;;;;;;5062810;28;20563;-56
2023/09/19 02:35:04;;;;;;;14.23;2.65;;;14.20;99.90;;;;;;5048075;28;20140;-53
2023/09/19 02:37:32;;;;;;;15.25;2.38;;;14.20;99.90;;;;;;5052125;28;20045;-55
2023/09/19 02:39:59;;;;;;;16.70;3.58;;;14.20;99.90;;;;;;5067296;28;20078;-54
2023/09/19 02:42:26;;;;;;;20.48;2.92;;;14.20;99.90;;;;;;5063147;28;20238;-55
2023/09/19 02:44:53;;;;;;;14.40;2.85;;;14.20;99.90;;;;;;5050667;28;20056;-55
2023/09/19 02:47:19;;;;;;;16.38;2.80;;;14.20;99.90;;;;;;5034041;28;20036;-56
2023/09/19 02:49:46;;;;;;;13.38;3.00;;;14.10;99.90;;;;;;5062801;28;20052;-54
2023/09/19 02:52:14;;;;;;;12.15;3.55;;;14.20;99.90;;;;;;5063160;28;20434;-55
2023/09/19 02:54:45;;;;;;;14.77;2.78;;;14.10;99.90;;;;;;5055120;28;20054;-56
2023/09/19 02:57:13;;;;;;;13.35;2.55;;;14.20;99.90;;;;;;5045496;28;20385;-54
2023/09/19 02:59:42;;;;;;;11.32;2.08;;;14.20;99.90;;;;;;5058618;28;20056;-52
2023/09/19 03:02:09;;;;;;;20.38;3.30;;;14.20;99.90;;;;;;5063884;28;20480;-56
2023/09/19 03:04:37;;;;;;;16.75;3.90;;;14.20;99.90;;;;;;5046600;28;20040;-55
2023/09/19 03:07:05;;;;;;;16.25;2.65;;;14.20;99.90;;;;;;5065649;28;20094;-56
2023/09/19 03:09:32;;;;;;;17.70;1.92;;;14.20;99.90;;;;;;5059556;28;20519;-56
2023/09/19 03:11:59;;;;;;;11.40;2.33;;;14.30;99.90;;;;;;5052537;28;20321;-55
2023/09/19 03:14:30;;;;;;;14.45;2.22;;;14.20;99.90;;;;;;5063028;28;20140;-55
2023/09/19 03:16:57;;;;;;;18.73;2.75;;;14.10;99.90;;;;;;5034349;28;20045;-55
2023/09/19 03:19:23;;;;;;;16.52;3.05;;;14.10;99.90;;;;;;5058829;28;20041;-57
2023/09/19 03:21:51;;;;;;;8.63;2.55;;;14.00;99.90;;;;;;5072155;28;20059;-57
2023/09/19 03:24:17;;;;;;;10.88;2.45;;;14.00;99.90;;;;;;5066416;28;20048;-53
2023/09/19 03:26:45;;;;;;;18.17;4.32;;;14.00;99.90;;;;;;5051624;28;20094;-57
2023/09/19 03:29:11;;;;;;;16.65;3.15;;;14.00;99.90;;;;;;5062469;28;20056;-55
2023/09/19 03:31:39;;;;;;;19.38;3.47;;;14.00;99.90;;;;;;5052415;28;20051;-54
2023/09/19 03:34:05;;;;;;;19.25;3.28;;;14.00;99.90;;;;;;5059797;28;20056;-55
2023/09/19 03:36:32;;;;;;;15.95;2.92;;;13.90;99.90;;;;;;5055389;28;20083;-56
2023/09/19 03:38:59;;;;;;;11.57;2.60;;;13.90;99.90;;;;;;5039757;28;20049;-59
2023/09/19 03:41:26;;;;;;;10.73;2.75;;;13.90;99.90;;;;;;5039100;28;20106;-56
2023/09/19 03:43:52;;;;;;;16.80;2.78;;;13.90;99.90;;;;;;5055255;28;20056;-57
2023/09/19 03:46:19;;;;;;;13.73;2.42;;;13.90;99.90;;;;;;5059707;28;20106;-56
2023/09/19 03:48:46;;;;;;;8.88;2.38;;;13.90;99.90;;;;;;5052936;28;20057;-56
2023/09/19 03:51:13;;;;;;;15.65;2.65;;;13.90;99.90;;;;;;5061463;28;20047;-58
2023/09/19 03:53:40;;;;;;;11.48;2.60;;;13.90;99.90;;;;;;5053254;28;20041;-56
2023/09/19 03:56:08;;;;;;;15.10;2.70;;;13.90;99.90;;;;;;5059779;28;20044;-57
2023/09/19 03:58:38;;;;;;;11.52;2.10;;;13.90;99.90;;;;;;5070028;28;20053;-56
2023/09/19 04:01:09;;;;;;;9.10;2.72;;;13.90;99.90;;;;;;5041927;28;20072;-58
2023/09/19 04:03:46;;;;;;;11.60;2.80;;;13.90;99.90;;;;;;5032904;28;20052;-56
2023/09/19 04:06:16;;;;;;;13.45;2.50;;;13.80;99.90;;;;;;5036070;28;20091;-56
2023/09/19 04:08:44;;;;;;;10.88;3.00;;;13.90;99.90;;;;;;5050379;28;20045;-56
2023/09/19 04:11:11;;;;;;;10.23;2.60;;;13.90;99.90;;;;;;5052719;28;20059;-57
2023/09/19 04:13:38;;;;;;;16.85;3.20;;;13.80;99.90;;;;;;5049970;28;20060;-57
2023/09/19 04:16:06;;;;;;;16.42;3.13;;;13.90;99.90;;;;;;5063116;28;20094;-57
2023/09/19 04:18:37;;;;;;;12.27;2.95;;;13.90;99.90;;;;;;5051187;28;20064;-56
2023/09/19 04:21:05;;;;;;;9.80;2.30;;;13.80;99.90;;;;;;5061946;28;20050;-57
2023/09/19 04:23:32;;;;;;;10.63;2.63;;;13.90;99.90;;;;;;5031244;28;20081;-57
2023/09/19 04:25:59;;;;;;;16.33;3.60;;;13.90;99.90;;;;;;5055108;28;20231;-54
2023/09/19 04:28:27;;;;;;;10.40;2.13;;;13.90;99.90;;;;;;5052911;28;20056;-55
2023/09/19 04:30:55;;;;;;;19.17;2.60;;;13.90;99.90;;;;;;5058018;28;20503;-56
2023/09/19 04:33:22;;;;;;;16.60;4.22;;;13.90;99.90;;;;;;5036794;28;20476;-55
2023/09/19 04:35:50;;;;;;;13.02;2.60;;;13.90;99.90;;;;;;5055520;28;20059;-55
2023/09/19 04:38:19;;;;;;;19.10;4.07;;;14.00;99.90;;;;;;5056094;28;20491;-56
2023/09/19 04:40:46;;;;;;;10.75;2.28;;;14.00;99.90;;;;;;5053452;28;20056;-55
2023/09/19 04:43:13;;;;;;;17.13;2.60;;;14.00;99.90;;;;;;5058304;28;20080;-56
2023/09/19 04:45:40;;;;;;;20.10;2.75;;;14.00;99.90;;;;;;5053728;28;20045;-55
2023/09/19 04:48:08;;;;;;;20.95;2.58;;;14.00;99.90;;;;;;5059443;28;20055;-53
2023/09/19 04:50:36;;;;;;;23.48;3.80;;;14.10;99.90;;;;;;5068422;28;20056;-57
2023/09/19 04:53:03;;;;;;;22.80;4.38;;;14.10;99.90;;;;;;5058769;28;20048;-57
2023/09/19 04:55:30;;;;;;;15.73;3.03;;;14.10;99.90;;;;;;5068655;28;20451;-54
2023/09/19 04:57:57;;;;;;;14.55;3.55;;;14.10;99.90;;;;;;5060915;28;20068;-56
2023/09/19 05:00:24;;;;;;;12.77;2.92;;;14.10;99.90;;;;;;5047919;28;20072;-56
2023/09/19 05:02:51;;;;;;;11.82;2.95;;;14.10;99.90;;;;;;5057355;28;20047;-53
2023/09/19 05:05:22;;;;;;;18.42;2.88;;;14.20;99.90;;;;;;5069794;28;20056;-56
2023/09/19 05:07:49;;;;;;;14.20;2.97;;;14.20;99.90;;;;;;5053914;28;20041;-55
2023/09/19 05:10:18;;;;;;;16.70;3.45;;;14.20;99.90;;;;;;5030929;28;20055;-56
2023/09/19 05:12:47;;;;;;;13.23;3.10;;;14.30;99.90;;;;;;5056383;28;20045;-54
2023/09/19 05:15:17;;;;;;;12.45;3.72;;;14.30;99.90;;;;;;5069135;28;20052;-57
2023/09/19 05:17:54;;;;;;;16.08;2.53;;;14.30;99.90;;;;;;5055790;28;20349;-54
2023/09/19 05:20:32;;;;;;;15.95;2.70;;;14.40;99.90;;;;;;5069164;28;20045;-55
2023/09/19 05:23:03;;;;;;;11.68;3.17;;;14.40;99.90;;;;;;5064398;28;20499;-57
2023/09/19 05:25:31;;;;;;;17.77;2.92;;;14.40;99.90;;;;;;5049474;28;20102;-53
2023/09/19 05:27:58;;;;;;;16.45;3.08;;;14.50;99.90;;;;;;5052768;28;20057;-56
2023/09/19 05:30:27;;;;;;;19.90;4.10;;;14.50;99.90;;;;;;5066320;28;20063;-57
2023/09/19 05:32:54;;;;;;;21.88;2.97;;;14.70;99.90;;;;;;5042327;28;20080;-54
2023/09/19 05:35:22;;;;;;;16.48;3.75;;;14.60;99.90;;;;;;5064096;28;20525;-56
2023/09/19 05:37:50;;;;;;;18.48;2.67;;;14.60;99.90;;;;;;5064190;28;20106;-56
2023/09/19 05:40:18;;;;;;;17.60;2.85;;;14.70;99.90;;;;;;5054041;28;20049;-56
2023/09/19 05:42:45;;;;;;;21.45;3.83;;;14.70;99.90;;;;;;5042189;28;20041;-56
2023/09/19 05:45:12;;;;;;;12.52;3.08;;;14.80;99.90;;;;;;5052245;28;20052;-55
2023/09/19 05:47:41;;;;;;;23.88;3.60;;;14.90;99.90;;;;;;5038394;28;20044;-54
2023/09/19 05:50:08;;;;;;;13.15;2.78;;;14.90;99.90;;;;;;5032139;28;20048;-57
2023/09/19 05:52:37;;;;;;;11.25;2.30;;;15.00;99.90;;;;;;5038210;28;20045;-57
2023/09/19 05:55:07;;;;;;;13.25;2.85;;;15.00;99.90;;;;;;5057483;28;20056;-56
2023/09/19 05:57:34;;;;;;;22.58;2.63;;;15.10;99.90;;;;;;5033910;28;20053;-54
2023/09/19 06:00:01;;;;;;;24.15;3.63;;;15.10;99.90;;;;;;5033034;28;20115;-54
2023/09/19 06:02:29;;;;;;;13.45;2.83;;;15.20;99.90;;;;;;5040579;28;20288;-56
2023/09/19 06:04:57;;;;;;;13.73;2.25;;;15.20;99.90;;;;;;5054128;28;20072;-56
2023/09/19 06:07:26;;;;;;;12.48;2.45;;;15.20;99.90;;;;;;5047084;28;20519;-57
2023/09/19 06:09:55;;;;;;;16.27;2.35;;;15.30;99.90;;;;;;5059270;28;20127;-56
2023/09/19 06:12:22;;;;;;;15.95;3.50;;;15.40;99.90;;;;;;5048235;28;20292;-59
2023/09/19 06:14:52;;;;;;;15.98;2.70;;;15.40;99.90;;;;;;5043367;28;20059;-52
2023/09/19 06:17:19;;;;;;;12.93;2.58;;;15.40;99.90;;;;;;5028436;28;20279;-53
2023/09/19 06:19:47;;;;;;;15.30;2.70;;;15.50;99.90;;;;;;5042780;28;20065;-56
2023/09/19 06:22:18;;;;;;;15.38;2.58;;;15.50;99.90;;;;;;5065383;28;20048;-57
2023/09/19 06:24:47;;;;;;;9.73;1.70;;;15.60;99.90;;;;;;5039060;28;20113;-59
2023/09/19 06:27:13;;;;;;;11.68;1.65;;;15.60;99.90;;;;;;5037525;28;20061;-54
2023/09/19 06:29:41;;;;;;;11.32;1.40;;;15.70;99.90;;;;;;5049357;28;20138;-56
2023/09/19 06:32:10;;;;;;;14.02;2.47;;;15.60;99.90;;;;;;5043347;28;20520;-50
2023/09/19 06:34:43;;;;;;;10.55;2.20;;;15.60;99.90;;;;;;5046894;28;20342;-55
2023/09/19 06:37:10;;;;;;;10.70;1.77;;;15.60;99.90;;;;;;5045533;28;20038;-51
2023/09/19 06:39:37;;;;;;;6.82;1.35;;;15.60;99.90;;;;;;5033575;28;20099;-54
2023/09/19 06:42:04;;;;;;;10.73;2.28;;;15.50;99.90;;;;;;5043555;28;20045;-55
2023/09/19 06:44:31;;;;;;;13.00;2.38;;;15.40;99.90;;;;;;5017305;28;20558;-55
2023/09/19 06:46:58;;;;;;;8.25;1.63;;;15.40;99.90;;;;;;5050583;28;20041;-54
2023/09/19 06:49:25;;;;;;;12.23;1.85;;;15.30;99.90;;;;;;5047686;28;20230;-56
2023/09/19 06:51:54;;;;;;;7.77;1.48;;;15.30;99.90;;;;;;4704293;28;10001118;-50
2023/09/19 06:54:21;;;;;;;6.35;1.65;;;15.40;99.90;;;;;;5010746;28;20103;-55
2023/09/19 06:56:48;;;;;;;5.63;1.15;;;15.40;99.90;;;;;;5045380;28;20496;-56
2023/09/19 06:59:16;;;;;;;9.07;1.85;;;15.50;99.90;;;;;;5039564;28;20041;-53
2023/09/19 07:01:44;;;;;;;11.10;2.03;;;15.50;99.90;;;;;;5024942;28;20053;-55
2023/09/19 07:04:12;;;;;;;9.82;1.88;;;15.60;99.90;;;;;;5025210;28;20052;-57
2023/09/19 07:06:40;;;;;;;10.57;2.13;;;15.70;99.90;;;;;;5052018;28;20048;-55
2023/09/19 07:09:08;;;;;;;9.02;1.50;;;15.80;99.90;;;;;;5033294;28;20472;-56
2023/09/19 07:11:35;;;;;;;6.53;1.63;;;15.80;99.90;;;;;;5048083;28;20048;-54
2023/09/19 07:14:03;;;;;;;10.35;2.22;;;15.90;99.90;;;;;;5046195;28;20543;-56
2023/09/19 07:16:30;;;;;;;12.77;2.10;;;15.90;99.90;;;;;;5043838;28;20079;-58
2023/09/19 07:18:57;;;;;;;6.13;1.45;;;15.90;99.90;;;;;;5048659;28;20216;-54
2023/09/19 07:21:24;;;;;;;9.10;2.50;;;16.00;99.90;;;;;;5039364;28;20111;-55
2023/09/19 07:23:53;;;;;;;7.38;1.50;;;16.00;99.90;;;;;;5040370;28;20053;-54
2023/09/19 07:26:20;;;;;;;9.60;1.67;;;16.10;99.90;;;;;;5030743;28;20050;-55
2023/09/19 07:28:47;;;;;;;14.15;2.38;;;16.10;99.90;;;;;;5009580;28;20065;-55
2023/09/19 07:31:15;;;;;;;11.70;2.10;;;16.20;99.90;;;;;;5044860;28;20525;-50
2023/09/19 07:33:42;;;;;;;13.32;3.05;;;16.20;99.90;;;;;;5054042;28;20048;-56
2023/09/19 07:36:10;;;;;;;7.50;1.90;;;16.30;99.90;;;;;;5060978;28;20060;-55
2023/09/19 07:38:37;;;;;;;9.07;2.05;;;16.30;99.90;;;;;;5050450;28;20087;-56
2023/09/19 07:41:05;;;;;;;12.57;2.08;;;16.30;99.90;;;;;;5045000;28;20053;-56
2023/09/19 07:43:33;;;;;;;8.27;2.53;;;16.40;99.90;;;;;;5055937;28;20044;-56
2023/09/19 07:46:07;;;;;;;8.00;1.80;;;16.40;99.90;;;;;;5066604;28;20045;-53
2023/09/19 07:48:35;;;;;;;;;;;16.40;99.90;;;;;;5055948;28;20080;-53
2023/09/19 07:51:03;;;;;;;8.55;2.45;;;16.50;99.90;;;;;;5067133;28;19927;-58
2023/09/19 07:53:30;;;;;;;12.43;2.40;;;16.50;99.90;;;;;;5053952;28;20053;-56
2023/09/19 07:56:08;;;;;;;12.15;2.85;;;16.60;99.90;;;;;;5066558;28;20079;-56
2023/09/19 07:58:35;;;;;;;12.75;2.85;;;16.60;99.90;;;;;;5057757;28;20683;-56
2023/09/19 08:01:06;;;;;;;14.55;2.55;;;16.60;99.90;;;;;;5070634;28;20051;-56
2023/09/19 08:03:40;;;;;;;12.48;2.92;;;16.60;99.90;;;;;;5065623;28;20048;-51
2023/09/19 08:06:08;;;;;;;18.38;2.28;;;16.70;99.90;;;;;;5050762;28;20483;-55
2023/09/19 08:08:38;;;;;;;7.82;2.45;;;16.70;99.90;;;;;;5061473;28;20483;-55
2023/09/19 08:11:12;;;;;;;10.30;2.80;;;16.70;99.90;;;;;;5050646;28;20053;-52
2023/09/19 08:13:43;;;;;;;11.75;2.30;;;16.70;99.90;;;;;;5061385;28;20047;-49
2023/09/19 08:16:10;;;;;;;12.02;2.35;;;16.70;99.90;;;;;;5051726;28;20052;-52
2023/09/19 08:18:40;;;;;;;11.25;2.85;;;16.60;99.90;;;;;;5054265;28;20111;-55
2023/09/19 08:21:10;;;;;;;10.75;2.90;;;16.50;99.90;;;;;;5068246;28;20044;-55
2023/09/19 08:23:40;;;;;;;17.80;3.13;;;16.50;99.90;;;;;;5044961;28;20080;-53
2023/09/19 08:26:08;;;;;;;18.15;4.20;;;16.50;99.90;;;;;;5065984;28;20491;-54
2023/09/19 08:28:35;;;;;;;18.77;4.07;;;16.50;99.90;;;;;;5063505;28;20090;-53
2023/09/19 08:31:05;;;;;;;18.67;3.83;;;16.40;99.90;;;;;;5064142;28;20087;-58
2023/09/19 08:33:36;;;;;;;22.95;3.70;;;16.30;99.90;;;;;;5065890;28;20044;-56
2023/09/19 08:36:07;;;;;;;14.88;3.40;;;16.40;99.90;;;;;;5057894;28;20060;-54
2023/09/19 08:38:34;;;;;;;24.90;4.00;;;16.40;99.90;;;;;;5054401;28;20247;-55
2023/09/19 08:41:05;;;;;;;20.25;4.25;;;16.50;99.90;;;;;;5060843;28;20129;-55
2023/09/19 08:43:34;;;;;;;19.13;4.03;;;16.50;99.90;;;;;;5064639;28;20040;-54
2023/09/19 08:46:14;;;;;;;17.60;4.53;;;16.60;99.90;;;;;;5069992;28;20480;-56
2023/09/19 08:48:48;;;;;;;23.13;4.47;;;16.60;99.90;;;;;;5035382;28;20174;-56
2023/09/19 08:51:30;;;;;;;20.15;4.60;;;16.70;99.90;;;;;;5032710;28;20048;-56
2023/09/19 08:54:04;;;;;;;19.00;3.83;;;16.80;99.90;;;;;;5047493;28;20044;-54
2023/09/19 08:56:32;;;;;;;23.63;4.38;;;16.80;99.90;;;;;;5041355;28;20049;-53
2023/09/19 08:59:04;;;;;;;26.40;4.40;;;16.90;99.90;;;;;;5050806;28;20068;-53
2023/09/19 09:01:32;;;;;;;22.58;4.75;;;17.10;99.90;;;;;;5048544;28;20050;-55
2023/09/19 09:03:59;;;;;;;30.90;6.97;;;17.20;99.90;;;;;;5068277;28;20124;-56
2023/09/19 09:06:27;;;;;;;19.30;4.53;;;17.30;99.90;;;;;;5040661;28;20098;-55
2023/09/19 09:08:55;;;;;;;19.63;5.03;;;17.40;99.90;;;;;;5069208;28;20052;-52
2023/09/19 09:11:24;;;;;;;16.02;4.45;;;17.40;99.90;;;;;;5057032;28;20037;-55
2023/09/19 09:13:51;;;;;;;27.75;5.60;;;17.50;99.90;;;;;;5049626;28;20202;-54
2023/09/19 09:16:18;;;;;;;22.98;5.53;;;17.50;99.90;;;;;;5061462;28;20045;-56
2023/09/19 09:18:52;;;;;;;19.42;4.40;;;17.60;99.90;;;;;;5049637;28;20193;-55
2023/09/19 09:21:24;;;;;;;17.60;4.50;;;17.60;99.90;;;;;;5061551;28;20049;-55
2023/09/19 09:23:53;;;;;;;19.30;4.43;;;17.70;99.90;;;;;;5031766;28;20048;-56
2023/09/19 09:26:39;;;;;;;21.40;4.30;;;17.70;99.90;;;;;;5061288;28;20048;-54
2023/09/19 09:29:06;;;;;;;22.17;4.55;;;17.80;99.90;;;;;;5049354;28;20416;-57
2023/09/19 09:31:33;;;;;;;20.77;5.15;;;17.80;99.90;;;;;;5060886;28;20492;-54
2023/09/19 09:34:00;;;;;;;25.23;4.88;;;17.90;99.90;;;;;;5049436;28;20060;-55
2023/09/19 09:36:36;;;;;;;21.10;5.25;;;18.20;99.90;;;;;;5053162;28;20540;-56
2023/09/19 09:39:15;;;;;;;18.20;4.50;;;18.20;99.90;;;;;;5069635;28;20503;-55
2023/09/19 09:41:43;;;;;;;16.38;3.95;;;18.20;99.90;;;;;;4685232;28;10000497;-54
2023/09/19 09:44:15;;;;;;;30.65;5.15;;;18.20;99.90;;;;;;5050955;28;20504;-56
2023/09/19 09:52:00;;;;;;;19.20;5.35;;;18.10;99.90;;;;;;5052504;28;20049;-56
2023/09/19 09:54:36;;;;;;;18.70;4.68;;;18.30;99.90;;;;;;5050482;28;20044;-54
2023/09/19 09:57:25;;;;;;;22.30;6.57;;;18.30;99.90;;;;;;5057332;28;20929;-56
2023/09/19 10:02:42;;;;;;;23.90;5.63;;;18.40;99.90;;;;;;5059171;28;20059;-55
2023/09/19 10:05:28;;;;;;;18.75;5.10;;;18.40;99.90;;;;;;5015473;28;20082;-57
2023/09/19 10:08:00;;;;;;;22.65;4.80;;;18.30;99.90;;;;;;5060533;28;20586;-55
2023/09/19 10:13:31;;;;;;;17.98;5.63;;;18.30;99.90;;;;;;5047022;28;20045;-53
2023/09/19 10:15:58;;;;;;;23.08;6.05;;;18.50;99.90;;;;;;5031200;28;20051;-54
2023/09/19 10:18:27;;;;;;;20.73;5.32;;;18.60;99.90;;;;;;5043553;28;20067;-55
2023/09/19 10:20:54;;;;;;;23.02;5.70;;;18.60;99.90;;;;;;5048964;28;20067;-56
2023/09/19 10:23:25;;;;;;;25.35;5.55;;;18.50;99.90;;;;;;5036639;28;20045;-56
2023/09/19 10:25:52;;;;;;;22.55;4.70;;;18.50;99.90;;;;;;5068302;28;20052;-56
2023/09/19 10:28:22;;;;;;;14.82;3.80;;;18.40;99.90;;;;;;5042443;28;20099;-57
2023/09/19 10:30:51;;;;;;;32.45;5.30;;;18.40;99.90;;;;;;5008779;28;20057;-55
2023/09/19 10:33:29;;;;;;;33.20;6.15;;;18.40;99.90;;;;;;5027283;28;20046;-56
2023/09/19 10:35:59;;;;;;;27.27;5.70;;;18.30;99.90;;;;;;5008605;28;20420;-52
2023/09/19 10:38:28;;;;;;;29.85;6.50;;;18.30;99.90;;;;;;5031443;28;20045;-57
2023/09/19 10:40:59;;;;;;;26.27;5.43;;;18.30;99.90;;;;;;5028395;28;20046;-55
2023/09/19 10:43:30;;;;;;;22.17;6.00;;;18.40;99.90;;;;;;5037323;28;20127;-56
2023/09/19 10:46:10;;;;;;;24.50;5.90;;;18.40;99.90;;;;;;5030147;28;20049;-55
2023/09/19 10:48:43;;;;;;;28.48;6.30;;;18.50;99.90;;;;;;5035564;28;20049;-57
2023/09/19 10:51:13;;;;;;;26.20;5.32;;;18.60;99.90;;;;;;5029002;28;20057;-54
2023/09/19 10:53:42;;;;;;;23.02;5.78;;;18.70;99.90;;;;;;5031937;28;20047;-55
2023/09/19 10:56:17;;;;;;;16.17;4.72;;;18.90;99.90;;;;;;5042673;28;20568;-56
2023/09/19 10:58:44;;;;;;;25.38;5.43;;;19.00;99.90;;;;;;5041980;28;20399;-57
2023/09/19 11:01:15;;;;;;;24.05;5.22;;;19.00;99.90;;;;;;5032695;28;20500;-55
2023/09/19 11:03:45;;;;;;;21.50;5.80;;;19.20;99.90;;;;;;5036466;28;20045;-57
2023/09/19 11:06:19;;;;;;;22.30;5.18;;;19.20;99.90;;;;;;5024540;28;20049;-53
2023/09/19 11:11:55;;;;;;;29.17;5.55;;;19.20;99.90;;;;;;5042560;28;20049;-57
2023/09/19 11:14:25;;;;;;;30.70;6.18;;;19.40;99.90;;;;;;5043277;28;20091;-55
2023/09/19 11:17:17;;;;;;;19.48;5.13;;;19.30;99.90;;;;;;5031009;28;20082;-54
2023/09/19 11:25:38;;;;;;;28.83;5.40;;;18.90;99.90;;;;;;5045065;28;20067;-57
2023/09/19 11:28:05;;;;;;;14.75;4.07;;;18.90;99.90;;;;;;5064633;28;20095;-50
2023/09/19 11:30:33;;;;;;;15.50;4.07;;;18.80;99.90;;;;;;5044401;28;20048;-54
2023/09/19 11:33:41;;;;;;;18.45;5.03;;;18.80;99.90;;;;;;5051981;28;20130;-54
2023/09/19 11:36:19;;;;;;;19.17;4.28;;;18.70;99.90;;;;;;5059348;28;20553;-55
2023/09/19 11:38:49;;;;;;;18.83;4.90;;;18.70;99.90;;;;;;5070604;28;20049;-57
2023/09/19 11:43:50;;;;;;;21.30;5.47;;;18.90;99.90;;;;;;5051484;28;20052;-53
2023/09/19 11:46:21;;;;;;;20.10;4.70;;;19.00;99.90;;;;;;5063103;28;20040;-56
2023/09/19 11:48:49;;;;;;;15.25;3.83;;;19.00;99.90;;;;;;5051070;28;20065;-57
2023/09/19 11:51:26;;;;;;;18.55;4.38;;;19.00;99.90;;;;;;5056718;28;20111;-57
2023/09/19 11:53:55;;;;;;;16.40;5.10;;;19.10;99.90;;;;;;5071399;28;20222;-54
2023/09/19 11:56:27;;;;;;;17.15;4.60;;;19.10;99.90;;;;;;5064822;28;20052;-57
2023/09/19 11:58:55;;;;;;;19.38;5.22;;;19.10;99.90;;;;;;5050875;28;20070;-55
2023/09/19 12:01:24;;;;;;;23.48;5.43;;;19.00;99.90;;;;;;5062619;28;20053;-56
2023/09/19 12:03:57;;;;;;;21.73;4.15;;;19.00;99.90;;;;;;5070863;28;20044;-55
2023/09/19 12:06:25;;;;;;;20.80;5.07;;;18.90;99.90;;;;;;5066340;28;20113;-57
2023/09/19 12:08:54;;;;;;;13.15;4.15;;;18.70;99.90;;;;;;5052074;28;20037;-57
2023/09/19 12:11:23;;;;;;;13.50;3.97;;;18.70;99.90;;;;;;5054534;28;20491;-57
2023/09/19 12:13:50;;;;;;;18.00;4.88;;;18.60;99.90;;;;;;5068132;28;20053;-56
2023/09/19 12:16:21;;;;;;;17.05;4.43;;;18.60;99.90;;;;;;5062782;28;20128;-55
2023/09/19 12:18:50;;;;;;;17.27;4.03;;;18.60;99.90;;;;;;5066111;28;20438;-57
2023/09/19 12:21:35;;;;;;;18.25;4.43;;;18.50;99.90;;;;;;5048729;28;20064;-56
2023/09/19 12:24:06;;;;;;;16.88;4.10;;;18.50;99.90;;;;;;5055108;28;20106;-56
2023/09/19 12:26:47;;;;;;;18.92;4.68;;;18.50;99.90;;;;;;5053927;28;20075;-57
2023/09/19 12:29:18;;;;;;;17.05;4.07;;;18.60;99.90;;;;;;5066857;28;20056;-57
2023/09/19 12:31:55;;;;;;;15.95;4.00;;;18.60;99.90;;;;;;5063432;28;20045;-56
2023/09/19 12:34:29;;;;;;;15.75;3.90;;;18.50;99.90;;;;;;5064536;28;20352;-57
2023/09/19 12:37:21;;;;;;;14.15;3.53;;;18.40;99.90;;;;;;5065322;28;20044;-54
2023/09/19 12:39:50;;;;;;;14.52;3.55;;;18.40;99.90;;;;;;5052334;28;20052;-55
2023/09/19 12:42:19;;;;;;;13.32;3.55;;;18.40;99.90;;;;;;5056746;28;20063;-58
2023/09/19 12:44:55;;;;;;;12.75;4.00;;;18.40;99.90;;;;;;5048100;28;20052;-56
2023/09/19 12:47:24;;;;;;;17.85;4.22;;;18.40;99.90;;;;;;5062132;28;20095;-57
2023/09/19 12:50:08;;;;;;;16.02;4.20;;;18.40;99.90;;;;;;5065625;28;20048;-55
2023/09/19 12:52:38;;;;;;;15.43;3.55;;;18.40;99.90;;;;;;5045519;28;20048;-57
2023/09/19 12:55:06;;;;;;;15.93;3.38;;;18.40;99.90;;;;;;5041082;28;20048;-56
2023/09/19 12:57:34;;;;;;;18.33;4.38;;;18.40;99.90;;;;;;5062484;28;20045;-56
2023/09/19 13:00:02;;;;;;;11.23;3.22;;;18.30;99.90;;;;;;5046209;28;20040;-55
2023/09/19 13:02:29;;;;;;;13.32;4.20;;;18.30;99.90;;;;;;5030464;28;20041;-55
2023/09/19 13:04:59;;;;;;;12.40;3.63;;;18.40;99.90;;;;;;5058191;28;20060;-56
2023/09/19 13:07:43;;;;;;;20.02;4.28;;;18.30;99.90;;;;;;5052094;28;20549;-52
2023/09/19 13:10:11;;;;;;;14.68;4.47;;;18.30;99.90;;;;;;5055804;28;20053;-56
2023/09/19 13:12:38;;;;;;;15.93;4.07;;;18.30;99.90;;;;;;5053149;28;20049;-57
2023/09/19 13:15:14;;;;;;;21.00;3.47;;;18.20;99.90;;;;;;5069481;28;20052;-55